Austin, Texas
Current Conditions -  °F | °C
As of 6:51 PM on Sunday 21 Dec 2014 (Local Time) from KATT Reporting Station
Overcast Overcast  
Wind Chill: 55°   Ceiling: 1200
Heat Index: 55°   Visibility: 10mi
Dew Point: 51°   Wind: 8mph
Humidity: 86%   Direction: 200°SSW
Pressure: 29.88"   Gusts: NA
Location:  30.27°N, 97.74°W
Report Text: KATT 220051Z AUTO 20007KT 10SM OVC012 13/11 A2988 RMK AO2 SLP119 T01280106
Loading
Personal Weather Stations






























Interactive Weather Map New forecast layout! Learn more

10-Day Weather Forecast

Advertisements
Track Severe Weather on mobile